sensor_id;sensor_type;location;lat;lon;timestamp;temperature;humidity
12622;DHT22;6376;48.182;-1.644;2023-04-24T00:02:21;14.10;76.70
12622;DHT22;6376;48.182;-1.644;2023-04-24T00:04:47;14.10;76.40
12622;DHT22;6376;48.182;-1.644;2023-04-24T00:07:14;14.10;76.60
12622;DHT22;6376;48.182;-1.644;2023-04-24T00:09:42;14.00;76.60
12622;DHT22;6376;48.182;-1.644;2023-04-24T00:12:09;14.00;76.70
12622;DHT22;6376;48.182;-1.644;2023-04-24T00:14:35;14.00;76.60
12622;DHT22;6376;48.182;-1.644;2023-04-24T00:17:01;14.10;76.60
12622;DHT22;6376;48.182;-1.644;2023-04-24T00:19:28;14.10;76.60
12622;DHT22;6376;48.182;-1.644;2023-04-24T00:21:54;14.10;76.60
12622;DHT22;6376;48.182;-1.644;2023-04-24T00:24:20;14.10;76.60
12622;DHT22;6376;48.182;-1.644;2023-04-24T00:26:46;14.10;76.70
12622;DHT22;6376;48.182;-1.644;2023-04-24T00:29:11;14.00;76.60
12622;DHT22;6376;48.182;-1.644;2023-04-24T00:31:37;14.00;76.60
12622;DHT22;6376;48.182;-1.644;2023-04-24T00:34:03;14.10;76.50
12622;DHT22;6376;48.182;-1.644;2023-04-24T00:36:29;14.00;76.50
12622;DHT22;6376;48.182;-1.644;2023-04-24T00:38:56;14.10;76.70
12622;DHT22;6376;48.182;-1.644;2023-04-24T00:41:23;14.00;76.60
12622;DHT22;6376;48.182;-1.644;2023-04-24T00:43:49;14.00;76.60
12622;DHT22;6376;48.182;-1.644;2023-04-24T00:46:16;14.00;76.50
12622;DHT22;6376;48.182;-1.644;2023-04-24T00:48:43;14.00;76.60
12622;DHT22;6376;48.182;-1.644;2023-04-24T00:51:08;14.00;76.60
12622;DHT22;6376;48.182;-1.644;2023-04-24T00:53:34;14.00;76.70
12622;DHT22;6376;48.182;-1.644;2023-04-24T00:56:01;14.00;76.70
12622;DHT22;6376;48.182;-1.644;2023-04-24T00:58:27;14.00;76.60
12622;DHT22;6376;48.182;-1.644;2023-04-24T01:00:54;14.00;76.60
12622;DHT22;6376;48.182;-1.644;2023-04-24T01:03:22;14.00;76.70
12622;DHT22;6376;48.182;-1.644;2023-04-24T01:05:50;14.00;76.60
12622;DHT22;6376;48.182;-1.644;2023-04-24T01:08:16;14.00;76.60
12622;DHT22;6376;48.182;-1.644;2023-04-24T01:10:43;14.00;76.60
12622;DHT22;6376;48.182;-1.644;2023-04-24T01:13:10;14.00;76.60
12622;DHT22;6376;48.182;-1.644;2023-04-24T01:15:36;14.00;76.60
12622;DHT22;6376;48.182;-1.644;2023-04-24T01:18:02;14.00;76.70
12622;DHT22;6376;48.182;-1.644;2023-04-24T01:20:28;14.00;76.60
12622;DHT22;6376;48.182;-1.644;2023-04-24T01:22:55;14.00;76.60
12622;DHT22;6376;48.182;-1.644;2023-04-24T01:25:23;13.90;76.70
12622;DHT22;6376;48.182;-1.644;2023-04-24T01:27:50;14.00;76.70
12622;DHT22;6376;48.182;-1.644;2023-04-24T01:30:17;13.90;76.60
12622;DHT22;6376;48.182;-1.644;2023-04-24T01:32:43;14.00;76.80
12622;DHT22;6376;48.182;-1.644;2023-04-24T01:35:10;14.00;76.70
12622;DHT22;6376;48.182;-1.644;2023-04-24T01:37:36;13.90;76.70
12622;DHT22;6376;48.182;-1.644;2023-04-24T01:40:06;13.90;76.70
12622;DHT22;6376;48.182;-1.644;2023-04-24T01:42:32;13.90;76.70
12622;DHT22;6376;48.182;-1.644;2023-04-24T01:44:58;13.90;76.70
12622;DHT22;6376;48.182;-1.644;2023-04-24T01:47:25;13.90;76.70
12622;DHT22;6376;48.182;-1.644;2023-04-24T01:49:50;13.90;76.70
12622;DHT22;6376;48.182;-1.644;2023-04-24T01:52:17;13.90;76.80
12622;DHT22;6376;48.182;-1.644;2023-04-24T01:54:44;13.90;76.80
12622;DHT22;6376;48.182;-1.644;2023-04-24T01:57:09;13.90;76.70
12622;DHT22;6376;48.182;-1.644;2023-04-24T01:59:35;13.90;76.70
12622;DHT22;6376;48.182;-1.644;2023-04-24T02:02:02;13.90;76.70
12622;DHT22;6376;48.182;-1.644;2023-04-24T02:04:28;13.90;76.70
12622;DHT22;6376;48.182;-1.644;2023-04-24T02:06:54;13.90;76.70
12622;DHT22;6376;48.182;-1.644;2023-04-24T02:09:20;13.90;76.70
12622;DHT22;6376;48.182;-1.644;2023-04-24T02:11:45;13.90;76.70
12622;DHT22;6376;48.182;-1.644;2023-04-24T02:14:11;13.90;77.50
12622;DHT22;6376;48.182;-1.644;2023-04-24T02:16:37;13.90;76.70
12622;DHT22;6376;48.182;-1.644;2023-04-24T02:19:03;13.90;76.70
12622;DHT22;6376;48.182;-1.644;2023-04-24T02:21:29;13.90;76.80
12622;DHT22;6376;48.182;-1.644;2023-04-24T02:23:56;13.90;76.80
12622;DHT22;6376;48.182;-1.644;2023-04-24T02:26:22;13.90;76.80
12622;DHT22;6376;48.182;-1.644;2023-04-24T02:28:47;13.90;76.80
12622;DHT22;6376;48.182;-1.644;2023-04-24T02:31:13;13.90;76.90
12622;DHT22;6376;48.182;-1.644;2023-04-24T02:33:39;13.90;76.90
12622;DHT22;6376;48.182;-1.644;2023-04-24T02:36:05;13.90;76.80
12622;DHT22;6376;48.182;-1.644;2023-04-24T02:38:30;13.90;76.80
12622;DHT22;6376;48.182;-1.644;2023-04-24T02:40:56;13.90;76.80
12622;DHT22;6376;48.182;-1.644;2023-04-24T02:43:22;13.90;76.90
12622;DHT22;6376;48.182;-1.644;2023-04-24T02:45:47;13.90;76.90
12622;DHT22;6376;48.182;-1.644;2023-04-24T02:48:13;13.90;76.90
12622;DHT22;6376;48.182;-1.644;2023-04-24T02:50:38;13.80;76.90
12622;DHT22;6376;48.182;-1.644;2023-04-24T02:53:04;13.80;76.80
12622;DHT22;6376;48.182;-1.644;2023-04-24T02:55:30;13.80;76.80
12622;DHT22;6376;48.182;-1.644;2023-04-24T02:57:56;13.90;76.70
12622;DHT22;6376;48.182;-1.644;2023-04-24T03:00:21;13.90;76.90
12622;DHT22;6376;48.182;-1.644;2023-04-24T03:02:47;13.80;76.80
12622;DHT22;6376;48.182;-1.644;2023-04-24T03:05:13;13.80;76.80
12622;DHT22;6376;48.182;-1.644;2023-04-24T03:07:39;13.80;76.80
12622;DHT22;6376;48.182;-1.644;2023-04-24T03:10:05;13.80;76.80
12622;DHT22;6376;48.182;-1.644;2023-04-24T03:12:31;13.80;76.90
12622;DHT22;6376;48.182;-1.644;2023-04-24T03:14:57;13.80;76.90
12622;DHT22;6376;48.182;-1.644;2023-04-24T03:17:22;13.80;77.00
12622;DHT22;6376;48.182;-1.644;2023-04-24T03:19:48;13.80;76.90
12622;DHT22;6376;48.182;-1.644;2023-04-24T03:22:13;13.80;76.90
12622;DHT22;6376;48.182;-1.644;2023-04-24T03:24:39;13.80;77.70
12622;DHT22;6376;48.182;-1.644;2023-04-24T03:27:05;13.80;76.90
12622;DHT22;6376;48.182;-1.644;2023-04-24T03:29:31;13.80;76.90
12622;DHT22;6376;48.182;-1.644;2023-04-24T03:31:56;13.80;76.90
12622;DHT22;6376;48.182;-1.644;2023-04-24T03:34:22;13.80;77.00
12622;DHT22;6376;48.182;-1.644;2023-04-24T03:36:48;13.80;76.90
12622;DHT22;6376;48.182;-1.644;2023-04-24T03:39:13;13.80;76.90
12622;DHT22;6376;48.182;-1.644;2023-04-24T03:41:39;13.80;77.00
12622;DHT22;6376;48.182;-1.644;2023-04-24T03:44:04;13.80;76.90
12622;DHT22;6376;48.182;-1.644;2023-04-24T03:46:30;13.80;77.00
12622;DHT22;6376;48.182;-1.644;2023-04-24T03:48:56;13.80;77.00
12622;DHT22;6376;48.182;-1.644;2023-04-24T03:51:21;13.80;77.10
12622;DHT22;6376;48.182;-1.644;2023-04-24T03:53:48;13.80;77.10
12622;DHT22;6376;48.182;-1.644;2023-04-24T03:56:14;13.80;77.00
12622;DHT22;6376;48.182;-1.644;2023-04-24T03:58:40;13.80;77.00
12622;DHT22;6376;48.182;-1.644;2023-04-24T04:01:05;13.80;77.10
12622;DHT22;6376;48.182;-1.644;2023-04-24T04:03:31;13.80;76.90
12622;DHT22;6376;48.182;-1.644;2023-04-24T04:05:57;13.80;77.10
12622;DHT22;6376;48.182;-1.644;2023-04-24T04:08:23;13.70;77.00
12622;DHT22;6376;48.182;-1.644;2023-04-24T04:10:48;13.80;77.10
12622;DHT22;6376;48.182;-1.644;2023-04-24T04:13:14;13.80;77.10
12622;DHT22;6376;48.182;-1.644;2023-04-24T04:15:40;13.80;77.20
12622;DHT22;6376;48.182;-1.644;2023-04-24T04:18:06;13.70;77.10
12622;DHT22;6376;48.182;-1.644;2023-04-24T04:20:31;13.80;77.10
12622;DHT22;6376;48.182;-1.644;2023-04-24T04:22:57;13.70;77.10
12622;DHT22;6376;48.182;-1.644;2023-04-24T04:25:22;13.70;77.10
12622;DHT22;6376;48.182;-1.644;2023-04-24T04:27:48;13.70;77.10
12622;DHT22;6376;48.182;-1.644;2023-04-24T04:30:14;13.70;77.10
12622;DHT22;6376;48.182;-1.644;2023-04-24T04:32:40;13.70;77.20
12622;DHT22;6376;48.182;-1.644;2023-04-24T04:35:06;13.80;77.10
12622;DHT22;6376;48.182;-1.644;2023-04-24T04:37:32;13.70;77.10
12622;DHT22;6376;48.182;-1.644;2023-04-24T04:40:02;13.70;77.10
12622;DHT22;6376;48.182;-1.644;2023-04-24T04:42:36;13.70;77.10
12622;DHT22;6376;48.182;-1.644;2023-04-24T04:45:09;13.70;77.10
12622;DHT22;6376;48.182;-1.644;2023-04-24T04:47:36;13.70;77.10
12622;DHT22;6376;48.182;-1.644;2023-04-24T04:50:02;13.70;77.10
12622;DHT22;6376;48.182;-1.644;2023-04-24T04:52:29;13.70;77.10
12622;DHT22;6376;48.182;-1.644;2023-04-24T04:54:55;13.70;77.10
12622;DHT22;6376;48.182;-1.644;2023-04-24T04:57:20;13.70;77.10
12622;DHT22;6376;48.182;-1.644;2023-04-24T04:59:46;13.70;77.10
12622;DHT22;6376;48.182;-1.644;2023-04-24T05:02:12;13.70;77.20
12622;DHT22;6376;48.182;-1.644;2023-04-24T05:04:38;13.70;77.20
12622;DHT22;6376;48.182;-1.644;2023-04-24T05:07:04;13.70;77.20
12622;DHT22;6376;48.182;-1.644;2023-04-24T05:09:29;13.70;77.20
12622;DHT22;6376;48.182;-1.644;2023-04-24T05:11:55;13.70;77.20
12622;DHT22;6376;48.182;-1.644;2023-04-24T05:14:21;13.70;77.20
12622;DHT22;6376;48.182;-1.644;2023-04-24T05:16:47;13.70;77.20
12622;DHT22;6376;48.182;-1.644;2023-04-24T05:19:13;13.70;77.10
12622;DHT22;6376;48.182;-1.644;2023-04-24T05:21:40;13.70;77.20
12622;DHT22;6376;48.182;-1.644;2023-04-24T05:24:06;13.70;77.20
12622;DHT22;6376;48.182;-1.644;2023-04-24T05:26:32;13.70;77.20
12622;DHT22;6376;48.182;-1.644;2023-04-24T05:28:58;13.70;77.20
12622;DHT22;6376;48.182;-1.644;2023-04-24T05:31:24;13.70;77.20
12622;DHT22;6376;48.182;-1.644;2023-04-24T05:33:50;13.70;77.20
12622;DHT22;6376;48.182;-1.644;2023-04-24T05:36:16;13.70;77.20
12622;DHT22;6376;48.182;-1.644;2023-04-24T05:38:41;13.70;77.20
12622;DHT22;6376;48.182;-1.644;2023-04-24T05:41:07;13.70;77.20
12622;DHT22;6376;48.182;-1.644;2023-04-24T05:43:33;13.70;77.10
12622;DHT22;6376;48.182;-1.644;2023-04-24T05:45:58;13.70;77.20
12622;DHT22;6376;48.182;-1.644;2023-04-24T05:48:24;13.70;77.10
12622;DHT22;6376;48.182;-1.644;2023-04-24T05:50:50;13.70;77.20
12622;DHT22;6376;48.182;-1.644;2023-04-24T05:53:18;13.70;77.20
12622;DHT22;6376;48.182;-1.644;2023-04-24T05:55:43;13.70;77.20
12622;DHT22;6376;48.182;-1.644;2023-04-24T05:58:09;13.70;77.30
12622;DHT22;6376;48.182;-1.644;2023-04-24T06:00:35;13.60;77.20
12622;DHT22;6376;48.182;-1.644;2023-04-24T06:03:01;13.60;77.20
12622;DHT22;6376;48.182;-1.644;2023-04-24T06:05:29;13.70;77.30
12622;DHT22;6376;48.182;-1.644;2023-04-24T06:07:55;13.70;77.40
12622;DHT22;6376;48.182;-1.644;2023-04-24T06:10:21;13.70;77.30
12622;DHT22;6376;48.182;-1.644;2023-04-24T06:12:46;13.60;77.20
12622;DHT22;6376;48.182;-1.644;2023-04-24T06:15:12;13.70;77.30
12622;DHT22;6376;48.182;-1.644;2023-04-24T06:17:38;13.70;77.30
12622;DHT22;6376;48.182;-1.644;2023-04-24T06:20:04;13.60;77.30
12622;DHT22;6376;48.182;-1.644;2023-04-24T06:22:31;13.60;77.40
12622;DHT22;6376;48.182;-1.644;2023-04-24T06:24:56;13.60;77.50
12622;DHT22;6376;48.182;-1.644;2023-04-24T06:27:22;13.60;77.50
12622;DHT22;6376;48.182;-1.644;2023-04-24T06:29:48;13.60;77.50
12622;DHT22;6376;48.182;-1.644;2023-04-24T06:32:22;13.60;77.50
12622;DHT22;6376;48.182;-1.644;2023-04-24T06:34:49;13.60;77.40
12622;DHT22;6376;48.182;-1.644;2023-04-24T06:37:14;13.60;77.40
12622;DHT22;6376;48.182;-1.644;2023-04-24T06:39:41;13.60;77.50
12622;DHT22;6376;48.182;-1.644;2023-04-24T06:42:07;13.60;77.40
12622;DHT22;6376;48.182;-1.644;2023-04-24T06:44:35;13.60;77.40
12622;DHT22;6376;48.182;-1.644;2023-04-24T06:47:06;13.60;77.40
12622;DHT22;6376;48.182;-1.644;2023-04-24T06:49:32;13.60;77.40
12622;DHT22;6376;48.182;-1.644;2023-04-24T06:51:58;13.60;77.30
12622;DHT22;6376;48.182;-1.644;2023-04-24T06:54:23;13.60;77.30
12622;DHT22;6376;48.182;-1.644;2023-04-24T06:56:49;13.60;77.20
12622;DHT22;6376;48.182;-1.644;2023-04-24T06:59:16;13.70;77.20
12622;DHT22;6376;48.182;-1.644;2023-04-24T07:01:42;13.60;77.20
12622;DHT22;6376;48.182;-1.644;2023-04-24T07:04:07;13.60;77.10
12622;DHT22;6376;48.182;-1.644;2023-04-24T07:06:33;13.60;77.10
12622;DHT22;6376;48.182;-1.644;2023-04-24T07:08:59;13.60;77.10
12622;DHT22;6376;48.182;-1.644;2023-04-24T07:11:25;13.60;77.10
12622;DHT22;6376;48.182;-1.644;2023-04-24T07:13:54;13.60;77.10
12622;DHT22;6376;48.182;-1.644;2023-04-24T07:16:20;13.60;77.10
12622;DHT22;6376;48.182;-1.644;2023-04-24T07:18:46;13.70;77.30
12622;DHT22;6376;48.182;-1.644;2023-04-24T07:21:12;13.70;77.10
12622;DHT22;6376;48.182;-1.644;2023-04-24T07:23:37;13.70;77.00
12622;DHT22;6376;48.182;-1.644;2023-04-24T07:26:03;13.70;77.00
12622;DHT22;6376;48.182;-1.644;2023-04-24T07:28:29;13.70;77.00
12622;DHT22;6376;48.182;-1.644;2023-04-24T07:31:01;13.70;76.90
12622;DHT22;6376;48.182;-1.644;2023-04-24T07:33:26;13.70;76.80
12622;DHT22;6376;48.182;-1.644;2023-04-24T07:35:52;13.70;76.80
12622;DHT22;6376;48.182;-1.644;2023-04-24T07:38:18;13.80;77.00
12622;DHT22;6376;48.182;-1.644;2023-04-24T07:40:48;13.90;76.80
12622;DHT22;6376;48.182;-1.644;2023-04-24T07:43:14;14.00;76.50
12622;DHT22;6376;48.182;-1.644;2023-04-24T07:45:40;14.00;76.10
12622;DHT22;6376;48.182;-1.644;2023-04-24T07:48:06;14.10;76.00
12622;DHT22;6376;48.182;-1.644;2023-04-24T07:50:32;14.10;75.60
12622;DHT22;6376;48.182;-1.644;2023-04-24T07:52:57;14.20;75.20
12622;DHT22;6376;48.182;-1.644;2023-04-24T07:55:23;14.30;74.80
12622;DHT22;6376;48.182;-1.644;2023-04-24T07:57:49;14.50;74.40
12622;DHT22;6376;48.182;-1.644;2023-04-24T08:00:15;14.60;73.90
12622;DHT22;6376;48.182;-1.644;2023-04-24T08:02:41;14.70;73.50
12622;DHT22;6376;48.182;-1.644;2023-04-24T08:05:07;14.80;73.10
12622;DHT22;6376;48.182;-1.644;2023-04-24T08:07:33;14.90;72.10
12622;DHT22;6376;48.182;-1.644;2023-04-24T08:09:58;15.10;71.60
12622;DHT22;6376;48.182;-1.644;2023-04-24T08:12:25;15.20;71.10
12622;DHT22;6376;48.182;-1.644;2023-04-24T08:14:50;15.30;70.80
12622;DHT22;6376;48.182;-1.644;2023-04-24T08:17:17;15.40;70.80
12622;DHT22;6376;48.182;-1.644;2023-04-24T08:19:42;15.40;70.30
12622;DHT22;6376;48.182;-1.644;2023-04-24T08:22:13;15.60;69.90
12622;DHT22;6376;48.182;-1.644;2023-04-24T08:24:38;15.60;69.70
12622;DHT22;6376;48.182;-1.644;2023-04-24T08:27:04;15.50;69.80
12622;DHT22;6376;48.182;-1.644;2023-04-24T08:29:30;15.40;69.90
12622;DHT22;6376;48.182;-1.644;2023-04-24T08:31:56;15.50;69.70
12622;DHT22;6376;48.182;-1.644;2023-04-24T08:34:22;15.60;69.60
12622;DHT22;6376;48.182;-1.644;2023-04-24T08:36:47;15.70;69.10
12622;DHT22;6376;48.182;-1.644;2023-04-24T08:39:14;15.80;68.60
12622;DHT22;6376;48.182;-1.644;2023-04-24T08:41:42;16.20;67.50
12622;DHT22;6376;48.182;-1.644;2023-04-24T08:44:09;16.30;66.60
12622;DHT22;6376;48.182;-1.644;2023-04-24T08:46:35;16.60;65.80
12622;DHT22;6376;48.182;-1.644;2023-04-24T08:49:02;16.60;65.50
12622;DHT22;6376;48.182;-1.644;2023-04-24T08:51:29;16.50;65.60
12622;DHT22;6376;48.182;-1.644;2023-04-24T08:53:57;16.40;65.80
12622;DHT22;6376;48.182;-1.644;2023-04-24T08:56:23;16.70;64.90
12622;DHT22;6376;48.182;-1.644;2023-04-24T08:58:51;16.40;65.80
12622;DHT22;6376;48.182;-1.644;2023-04-24T09:01:21;16.50;67.10
12622;DHT22;6376;48.182;-1.644;2023-04-24T09:03:49;16.00;67.30
12622;DHT22;6376;48.182;-1.644;2023-04-24T09:06:16;16.00;67.50
12622;DHT22;6376;48.182;-1.644;2023-04-24T09:08:43;16.00;67.40
12622;DHT22;6376;48.182;-1.644;2023-04-24T09:11:11;16.00;67.20
12622;DHT22;6376;48.182;-1.644;2023-04-24T09:13:37;16.00;67.20
12622;DHT22;6376;48.182;-1.644;2023-04-24T09:16:03;16.20;66.80
12622;DHT22;6376;48.182;-1.644;2023-04-24T09:18:28;16.30;66.10
12622;DHT22;6376;48.182;-1.644;2023-04-24T09:21:08;16.60;65.20
12622;DHT22;6376;48.182;-1.644;2023-04-24T09:23:34;16.60;65.30
12622;DHT22;6376;48.182;-1.644;2023-04-24T09:26:01;16.40;65.60
12622;DHT22;6376;48.182;-1.644;2023-04-24T09:31:14;15.70;68.40
12622;DHT22;6376;48.182;-1.644;2023-04-24T09:34:04;15.70;68.90
12622;DHT22;6376;48.182;-1.644;2023-04-24T09:36:33;15.60;69.10
12622;DHT22;6376;48.182;-1.644;2023-04-24T09:39:00;15.60;68.90
12622;DHT22;6376;48.182;-1.644;2023-04-24T09:41:27;15.60;69.20
12622;DHT22;6376;48.182;-1.644;2023-04-24T09:43:56;15.40;69.50
12622;DHT22;6376;48.182;-1.644;2023-04-24T09:46:30;15.40;69.60
12622;DHT22;6376;48.182;-1.644;2023-04-24T09:48:57;15.50;69.40
12622;DHT22;6376;48.182;-1.644;2023-04-24T09:51:36;15.60;69.30
12622;DHT22;6376;48.182;-1.644;2023-04-24T09:54:03;15.70;68.90
12622;DHT22;6376;48.182;-1.644;2023-04-24T09:56:32;15.60;68.80
12622;DHT22;6376;48.182;-1.644;2023-04-24T09:59:05;15.50;69.20
12622;DHT22;6376;48.182;-1.644;2023-04-24T10:01:32;15.40;69.70
12622;DHT22;6376;48.182;-1.644;2023-04-24T10:03:58;15.30;70.00
12622;DHT22;6376;48.182;-1.644;2023-04-24T10:06:32;15.20;70.20
12622;DHT22;6376;48.182;-1.644;2023-04-24T10:08:58;15.30;70.40
12622;DHT22;6376;48.182;-1.644;2023-04-24T10:11:27;15.40;69.70
12622;DHT22;6376;48.182;-1.644;2023-04-24T10:13:53;15.60;69.30
12622;DHT22;6376;48.182;-1.644;2023-04-24T10:16:21;15.70;68.90
12622;DHT22;6376;48.182;-1.644;2023-04-24T10:18:48;15.70;68.80
12622;DHT22;6376;48.182;-1.644;2023-04-24T10:21:16;15.70;68.70
12622;DHT22;6376;48.182;-1.644;2023-04-24T10:23:42;15.70;68.80
12622;DHT22;6376;48.182;-1.644;2023-04-24T10:26:09;15.80;68.40
12622;DHT22;6376;48.182;-1.644;2023-04-24T10:28:36;15.80;68.20
12622;DHT22;6376;48.182;-1.644;2023-04-24T10:31:02;15.80;68.20
12622;DHT22;6376;48.182;-1.644;2023-04-24T10:33:29;15.70;68.50
12622;DHT22;6376;48.182;-1.644;2023-04-24T10:35:56;15.60;68.90
12622;DHT22;6376;48.182;-1.644;2023-04-24T10:38:25;15.50;69.10
12622;DHT22;6376;48.182;-1.644;2023-04-24T10:40:58;15.40;69.50
12622;DHT22;6376;48.182;-1.644;2023-04-24T10:43:33;15.40;69.70
12622;DHT22;6376;48.182;-1.644;2023-04-24T10:46:04;15.40;69.80
12622;DHT22;6376;48.182;-1.644;2023-04-24T10:48:31;15.40;70.00
12622;DHT22;6376;48.182;-1.644;2023-04-24T10:50:58;15.40;69.80
12622;DHT22;6376;48.182;-1.644;2023-04-24T10:53:35;15.50;69.50
12622;DHT22;6376;48.182;-1.644;2023-04-24T10:56:09;15.60;69.20
12622;DHT22;6376;48.182;-1.644;2023-04-24T10:58:43;15.60;69.10
12622;DHT22;6376;48.182;-1.644;2023-04-24T11:01:30;15.60;69.20
12622;DHT22;6376;48.182;-1.644;2023-04-24T11:04:00;15.60;69.00
12622;DHT22;6376;48.182;-1.644;2023-04-24T11:06:35;15.50;69.40
12622;DHT22;6376;48.182;-1.644;2023-04-24T11:09:08;15.40;69.70
12622;DHT22;6376;48.182;-1.644;2023-04-24T11:11:36;15.40;69.90
12622;DHT22;6376;48.182;-1.644;2023-04-24T11:14:05;15.40;69.80
12622;DHT22;6376;48.182;-1.644;2023-04-24T11:16:51;15.40;69.80
12622;DHT22;6376;48.182;-1.644;2023-04-24T11:19:20;15.40;69.80
12622;DHT22;6376;48.182;-1.644;2023-04-24T11:21:59;15.40;69.80
12622;DHT22;6376;48.182;-1.644;2023-04-24T11:24:38;15.30;70.10
12622;DHT22;6376;48.182;-1.644;2023-04-24T11:27:05;15.30;70.20
12622;DHT22;6376;48.182;-1.644;2023-04-24T11:35:01;15.30;70.30
12622;DHT22;6376;48.182;-1.644;2023-04-24T11:37:38;15.40;70.10
12622;DHT22;6376;48.182;-1.644;2023-04-24T11:40:06;15.40;70.10
12622;DHT22;6376;48.182;-1.644;2023-04-24T11:42:36;15.40;69.90
12622;DHT22;6376;48.182;-1.644;2023-04-24T11:45:06;15.40;70.10
12622;DHT22;6376;48.182;-1.644;2023-04-24T11:47:32;15.40;70.20
12622;DHT22;6376;48.182;-1.644;2023-04-24T11:50:00;15.40;70.20
12622;DHT22;6376;48.182;-1.644;2023-04-24T11:52:26;15.40;70.20
12622;DHT22;6376;48.182;-1.644;2023-04-24T11:54:52;15.30;70.10
12622;DHT22;6376;48.182;-1.644;2023-04-24T11:57:23;15.30;69.90
12622;DHT22;6376;48.182;-1.644;2023-04-24T11:59:49;15.30;70.10
12622;DHT22;6376;48.182;-1.644;2023-04-24T12:02:26;15.30;70.20
12622;DHT22;6376;48.182;-1.644;2023-04-24T12:04:52;15.30;70.30
12622;DHT22;6376;48.182;-1.644;2023-04-24T12:07:19;15.30;70.20
12622;DHT22;6376;48.182;-1.644;2023-04-24T12:12:12;15.30;70.30
12622;DHT22;6376;48.182;-1.644;2023-04-24T12:14:53;15.30;70.30
12622;DHT22;6376;48.182;-1.644;2023-04-24T12:17:30;15.30;70.30
12622;DHT22;6376;48.182;-1.644;2023-04-24T12:20:03;15.20;70.30
12622;DHT22;6376;48.182;-1.644;2023-04-24T12:22:47;15.30;70.50
12622;DHT22;6376;48.182;-1.644;2023-04-24T12:25:17;15.30;70.60
12622;DHT22;6376;48.182;-1.644;2023-04-24T12:27:44;15.30;70.50
12622;DHT22;6376;48.182;-1.644;2023-04-24T12:30:15;15.20;70.50
12622;DHT22;6376;48.182;-1.644;2023-04-24T12:32:46;15.20;70.60
12622;DHT22;6376;48.182;-1.644;2023-04-24T12:35:12;15.30;70.20
12622;DHT22;6376;48.182;-1.644;2023-04-24T12:37:38;15.20;70.50
12622;DHT22;6376;48.182;-1.644;2023-04-24T12:40:09;15.20;70.50
12622;DHT22;6376;48.182;-1.644;2023-04-24T12:42:43;15.20;70.60
12622;DHT22;6376;48.182;-1.644;2023-04-24T12:45:09;15.20;70.30
12622;DHT22;6376;48.182;-1.644;2023-04-24T12:47:35;15.30;70.00
12622;DHT22;6376;48.182;-1.644;2023-04-24T12:50:02;15.30;69.90
12622;DHT22;6376;48.182;-1.644;2023-04-24T12:52:29;15.30;70.20
12622;DHT22;6376;48.182;-1.644;2023-04-24T12:54:59;15.30;70.20
12622;DHT22;6376;48.182;-1.644;2023-04-24T12:57:29;15.30;70.00
12622;DHT22;6376;48.182;-1.644;2023-04-24T12:59:56;15.30;70.20
12622;DHT22;6376;48.182;-1.644;2023-04-24T13:02:23;15.30;70.20
12622;DHT22;6376;48.182;-1.644;2023-04-24T13:04:49;15.30;70.20
12622;DHT22;6376;48.182;-1.644;2023-04-24T13:07:16;15.30;70.30
12622;DHT22;6376;48.182;-1.644;2023-04-24T13:09:43;15.30;70.20
12622;DHT22;6376;48.182;-1.644;2023-04-24T13:12:09;15.30;70.20
12622;DHT22;6376;48.182;-1.644;2023-04-24T13:14:35;15.30;70.10
12622;DHT22;6376;48.182;-1.644;2023-04-24T13:17:02;15.30;70.00
12622;DHT22;6376;48.182;-1.644;2023-04-24T13:19:28;15.40;70.10
12622;DHT22;6376;48.182;-1.644;2023-04-24T13:21:55;15.30;70.10
12622;DHT22;6376;48.182;-1.644;2023-04-24T13:24:22;15.40;70.20
12622;DHT22;6376;48.182;-1.644;2023-04-24T13:26:50;15.40;70.20
12622;DHT22;6376;48.182;-1.644;2023-04-24T13:29:16;15.40;70.10
12622;DHT22;6376;48.182;-1.644;2023-04-24T13:31:42;15.40;70.00
12622;DHT22;6376;48.182;-1.644;2023-04-24T13:34:08;15.40;70.10
12622;DHT22;6376;48.182;-1.644;2023-04-24T13:36:33;15.30;70.20
12622;DHT22;6376;48.182;-1.644;2023-04-24T13:38:59;15.30;70.00
12622;DHT22;6376;48.182;-1.644;2023-04-24T13:41:25;15.30;70.30
12622;DHT22;6376;48.182;-1.644;2023-04-24T13:43:50;15.30;70.30
12622;DHT22;6376;48.182;-1.644;2023-04-24T13:46:16;15.30;70.40
12622;DHT22;6376;48.182;-1.644;2023-04-24T13:48:42;15.30;70.20
12622;DHT22;6376;48.182;-1.644;2023-04-24T13:51:08;15.40;70.20
12622;DHT22;6376;48.182;-1.644;2023-04-24T13:53:33;15.40;70.20
12622;DHT22;6376;48.182;-1.644;2023-04-24T13:56:01;15.40;70.10
12622;DHT22;6376;48.182;-1.644;2023-04-24T13:58:27;15.40;70.20
12622;DHT22;6376;48.182;-1.644;2023-04-24T14:00:53;15.40;70.20
12622;DHT22;6376;48.182;-1.644;2023-04-24T14:03:18;15.40;70.30
12622;DHT22;6376;48.182;-1.644;2023-04-24T14:05:44;15.40;70.20
12622;DHT22;6376;48.182;-1.644;2023-04-24T14:08:10;15.40;70.40
12622;DHT22;6376;48.182;-1.644;2023-04-24T14:10:35;15.30;70.30
12622;DHT22;6376;48.182;-1.644;2023-04-24T14:13:01;15.30;70.30
12622;DHT22;6376;48.182;-1.644;2023-04-24T14:15:27;15.30;70.30
12622;DHT22;6376;48.182;-1.644;2023-04-24T14:17:53;15.30;70.40
12622;DHT22;6376;48.182;-1.644;2023-04-24T14:20:18;15.30;70.40
12622;DHT22;6376;48.182;-1.644;2023-04-24T14:22:45;15.30;70.50
12622;DHT22;6376;48.182;-1.644;2023-04-24T14:25:11;15.30;70.60
12622;DHT22;6376;48.182;-1.644;2023-04-24T14:27:36;15.30;70.60
12622;DHT22;6376;48.182;-1.644;2023-04-24T14:30:03;15.30;70.60
12622;DHT22;6376;48.182;-1.644;2023-04-24T14:32:29;15.30;70.60
12622;DHT22;6376;48.182;-1.644;2023-04-24T14:34:55;15.30;70.60
12622;DHT22;6376;48.182;-1.644;2023-04-24T14:37:21;15.30;70.60
12622;DHT22;6376;48.182;-1.644;2023-04-24T14:39:46;15.30;70.60
12622;DHT22;6376;48.182;-1.644;2023-04-24T14:42:12;15.30;70.70
12622;DHT22;6376;48.182;-1.644;2023-04-24T14:44:37;15.30;70.80
12622;DHT22;6376;48.182;-1.644;2023-04-24T14:47:03;15.30;71.00
12622;DHT22;6376;48.182;-1.644;2023-04-24T14:49:29;15.30;70.80
12622;DHT22;6376;48.182;-1.644;2023-04-24T14:51:54;15.30;70.70
12622;DHT22;6376;48.182;-1.644;2023-04-24T14:54:20;15.30;70.60
12622;DHT22;6376;48.182;-1.644;2023-04-24T14:56:48;15.40;70.70
12622;DHT22;6376;48.182;-1.644;2023-04-24T14:59:14;15.40;70.80
12622;DHT22;6376;48.182;-1.644;2023-04-24T15:01:40;15.30;70.60
12622;DHT22;6376;48.182;-1.644;2023-04-24T15:04:06;15.30;70.80
12622;DHT22;6376;48.182;-1.644;2023-04-24T15:06:31;15.30;70.80
12622;DHT22;6376;48.182;-1.644;2023-04-24T15:08:58;15.30;70.60
12622;DHT22;6376;48.182;-1.644;2023-04-24T15:11:24;15.30;70.60
12622;DHT22;6376;48.182;-1.644;2023-04-24T15:13:50;15.30;70.70
12622;DHT22;6376;48.182;-1.644;2023-04-24T15:16:18;15.30;70.70
12622;DHT22;6376;48.182;-1.644;2023-04-24T15:18:44;15.30;70.70
12622;DHT22;6376;48.182;-1.644;2023-04-24T15:21:09;15.30;70.80
12622;DHT22;6376;48.182;-1.644;2023-04-24T15:23:35;15.40;70.90
12622;DHT22;6376;48.182;-1.644;2023-04-24T15:26:01;15.40;71.00
12622;DHT22;6376;48.182;-1.644;2023-04-24T15:28:27;15.40;70.90
12622;DHT22;6376;48.182;-1.644;2023-04-24T15:30:53;15.40;70.80
12622;DHT22;6376;48.182;-1.644;2023-04-24T15:33:18;15.40;70.90
12622;DHT22;6376;48.182;-1.644;2023-04-24T15:35:44;15.40;70.70
12622;DHT22;6376;48.182;-1.644;2023-04-24T15:38:10;15.40;70.80
12622;DHT22;6376;48.182;-1.644;2023-04-24T15:40:36;15.40;70.80